sensor_id;sensor_type;location;lat;lon;timestamp;P1;P2;P0
36513;PMS5003;74739;46.796;9.824;2024-03-22T00:02:08;7;7;
36513;PMS5003;74739;46.796;9.824;2024-03-22T00:04:35;6;6;
36513;PMS5003;74739;46.796;9.824;2024-03-22T00:07:03;9;7;
36513;PMS5003;74739;46.796;9.824;2024-03-22T00:09:30;6;6;
36513;PMS5003;74739;46.796;9.824;2024-03-22T00:11:57;8;8;
36513;PMS5003;74739;46.796;9.824;2024-03-22T00:14:25;6;6;
36513;PMS5003;74739;46.796;9.824;2024-03-22T00:16:51;10;10;
36513;PMS5003;74739;46.796;9.824;2024-03-22T00:19:18;11;7;
36513;PMS5003;74739;46.796;9.824;2024-03-22T00:21:45;6;6;
36513;PMS5003;74739;46.796;9.824;2024-03-22T00:24:12;7;7;
36513;PMS5003;74739;46.796;9.824;2024-03-22T00:26:39;6;6;
36513;PMS5003;74739;46.796;9.824;2024-03-22T00:29:06;9;8;
36513;PMS5003;74739;46.796;9.824;2024-03-22T00:31:33;4;4;
36513;PMS5003;74739;46.796;9.824;2024-03-22T00:34:00;6;6;
36513;PMS5003;74739;46.796;9.824;2024-03-22T00:36:26;7;7;
36513;PMS5003;74739;46.796;9.824;2024-03-22T00:38:53;9;7;
36513;PMS5003;74739;46.796;9.824;2024-03-22T00:41:20;10;8;
36513;PMS5003;74739;46.796;9.824;2024-03-22T00:43:47;9;9;
36513;PMS5003;74739;46.796;9.824;2024-03-22T00:46:13;8;8;
36513;PMS5003;74739;46.796;9.824;2024-03-22T00:48:40;10;10;
36513;PMS5003;74739;46.796;9.824;2024-03-22T00:51:07;10;8;
36513;PMS5003;74739;46.796;9.824;2024-03-22T00:53:34;10;8;
36513;PMS5003;74739;46.796;9.824;2024-03-22T00:56:01;6;6;
36513;PMS5003;74739;46.796;9.824;2024-03-22T00:58:29;9;7;
36513;PMS5003;74739;46.796;9.824;2024-03-22T01:00:57;9;9;
36513;PMS5003;74739;46.796;9.824;2024-03-22T01:03:24;6;6;
36513;PMS5003;74739;46.796;9.824;2024-03-22T01:05:52;7;6;
36513;PMS5003;74739;46.796;9.824;2024-03-22T01:08:20;11;9;
36513;PMS5003;74739;46.796;9.824;2024-03-22T01:10:48;9;7;
36513;PMS5003;74739;46.796;9.824;2024-03-22T01:13:16;9;8;
36513;PMS5003;74739;46.796;9.824;2024-03-22T01:15:44;7;7;
36513;PMS5003;74739;46.796;9.824;2024-03-22T01:18:11;6;6;
36513;PMS5003;74739;46.796;9.824;2024-03-22T01:20:39;9;9;
36513;PMS5003;74739;46.796;9.824;2024-03-22T01:23:07;7;7;
36513;PMS5003;74739;46.796;9.824;2024-03-22T01:25:40;5;5;
36513;PMS5003;74739;46.796;9.824;2024-03-22T01:28:07;7;7;
36513;PMS5003;74739;46.796;9.824;2024-03-22T01:30:36;9;6;
36513;PMS5003;74739;46.796;9.824;2024-03-22T01:33:04;6;6;
36513;PMS5003;74739;46.796;9.824;2024-03-22T01:35:32;6;6;
36513;PMS5003;74739;46.796;9.824;2024-03-22T01:38:02;6;5;
36513;PMS5003;74739;46.796;9.824;2024-03-22T01:40:30;10;7;
36513;PMS5003;74739;46.796;9.824;2024-03-22T01:42:58;8;8;
36513;PMS5003;74739;46.796;9.824;2024-03-22T01:45:27;5;5;
36513;PMS5003;74739;46.796;9.824;2024-03-22T01:48:00;6;5;
36513;PMS5003;74739;46.796;9.824;2024-03-22T01:50:29;6;6;
36513;PMS5003;74739;46.796;9.824;2024-03-22T01:52:57;8;8;
36513;PMS5003;74739;46.796;9.824;2024-03-22T01:55:26;9;8;
36513;PMS5003;74739;46.796;9.824;2024-03-22T01:57:54;7;7;
36513;PMS5003;74739;46.796;9.824;2024-03-22T02:00:24;5;5;
36513;PMS5003;74739;46.796;9.824;2024-03-22T02:02:52;5;5;
36513;PMS5003;74739;46.796;9.824;2024-03-22T02:05:21;8;7;
36513;PMS5003;74739;46.796;9.824;2024-03-22T02:07:49;6;5;
36513;PMS5003;74739;46.796;9.824;2024-03-22T02:10:17;6;6;
36513;PMS5003;74739;46.796;9.824;2024-03-22T02:12:46;8;7;
36513;PMS5003;74739;46.796;9.824;2024-03-22T02:15:14;8;7;
36513;PMS5003;74739;46.796;9.824;2024-03-22T02:17:43;5;5;
36513;PMS5003;74739;46.796;9.824;2024-03-22T02:20:11;6;5;
36513;PMS5003;74739;46.796;9.824;2024-03-22T02:22:40;5;5;
36513;PMS5003;74739;46.796;9.824;2024-03-22T02:25:09;6;6;
36513;PMS5003;74739;46.796;9.824;2024-03-22T02:27:38;6;6;
36513;PMS5003;74739;46.796;9.824;2024-03-22T02:30:07;10;9;
36513;PMS5003;74739;46.796;9.824;2024-03-22T02:32:40;6;5;
36513;PMS5003;74739;46.796;9.824;2024-03-22T02:35:08;5;4;
36513;PMS5003;74739;46.796;9.824;2024-03-22T02:37:37;9;8;
36513;PMS5003;74739;46.796;9.824;2024-03-22T02:40:05;8;7;
36513;PMS5003;74739;46.796;9.824;2024-03-22T02:42:34;7;5;
36513;PMS5003;74739;46.796;9.824;2024-03-22T02:45:07;7;7;
36513;PMS5003;74739;46.796;9.824;2024-03-22T02:47:40;8;7;
36513;PMS5003;74739;46.796;9.824;2024-03-22T02:50:08;10;8;
36513;PMS5003;74739;46.796;9.824;2024-03-22T02:52:36;8;8;
36513;PMS5003;74739;46.796;9.824;2024-03-22T02:55:09;8;7;
36513;PMS5003;74739;46.796;9.824;2024-03-22T02:57:36;8;8;
36513;PMS5003;74739;46.796;9.824;2024-03-22T03:00:05;9;9;
36513;PMS5003;74739;46.796;9.824;2024-03-22T03:02:34;8;7;
36513;PMS5003;74739;46.796;9.824;2024-03-22T03:05:07;9;8;
36513;PMS5003;74739;46.796;9.824;2024-03-22T03:07:40;7;7;
36513;PMS5003;74739;46.796;9.824;2024-03-22T03:10:08;7;5;
36513;PMS5003;74739;46.796;9.824;2024-03-22T03:12:36;7;7;
36513;PMS5003;74739;46.796;9.824;2024-03-22T03:15:04;8;8;
36513;PMS5003;74739;46.796;9.824;2024-03-22T03:17:32;9;8;
36513;PMS5003;74739;46.796;9.824;2024-03-22T03:20:00;5;5;
36513;PMS5003;74739;46.796;9.824;2024-03-22T03:22:27;8;7;
36513;PMS5003;74739;46.796;9.824;2024-03-22T03:24:55;9;7;
36513;PMS5003;74739;46.796;9.824;2024-03-22T03:27:23;9;8;
36513;PMS5003;74739;46.796;9.824;2024-03-22T03:29:50;7;7;
36513;PMS5003;74739;46.796;9.824;2024-03-22T03:32:19;5;5;
36513;PMS5003;74739;46.796;9.824;2024-03-22T03:34:47;8;7;
36513;PMS5003;74739;46.796;9.824;2024-03-22T03:37:16;13;11;
36513;PMS5003;74739;46.796;9.824;2024-03-22T03:39:43;8;8;
36513;PMS5003;74739;46.796;9.824;2024-03-22T03:42:11;7;7;
36513;PMS5003;74739;46.796;9.824;2024-03-22T03:44:38;5;5;
36513;PMS5003;74739;46.796;9.824;2024-03-22T03:47:07;8;7;
36513;PMS5003;74739;46.796;9.824;2024-03-22T03:49:36;5;5;
36513;PMS5003;74739;46.796;9.824;2024-03-22T03:52:04;5;5;
36513;PMS5003;74739;46.796;9.824;2024-03-22T03:54:32;8;7;
36513;PMS5003;74739;46.796;9.824;2024-03-22T03:56:59;7;5;
36513;PMS5003;74739;46.796;9.824;2024-03-22T03:59:27;7;7;
36513;PMS5003;74739;46.796;9.824;2024-03-22T04:01:54;8;7;
36513;PMS5003;74739;46.796;9.824;2024-03-22T04:04:21;9;7;
36513;PMS5003;74739;46.796;9.824;2024-03-22T04:06:49;9;8;
36513;PMS5003;74739;46.796;9.824;2024-03-22T04:09:17;8;7;
36513;PMS5003;74739;46.796;9.824;2024-03-22T04:11:44;7;7;
36513;PMS5003;74739;46.796;9.824;2024-03-22T04:14:11;7;7;
36513;PMS5003;74739;46.796;9.824;2024-03-22T04:16:38;8;8;
36513;PMS5003;74739;46.796;9.824;2024-03-22T04:19:06;8;8;
36513;PMS5003;74739;46.796;9.824;2024-03-22T04:21:32;10;9;
36513;PMS5003;74739;46.796;9.824;2024-03-22T04:23:59;8;8;
36513;PMS5003;74739;46.796;9.824;2024-03-22T04:26:26;7;7;
36513;PMS5003;74739;46.796;9.824;2024-03-22T04:28:54;7;7;
36513;PMS5003;74739;46.796;9.824;2024-03-22T04:31:21;9;8;
36513;PMS5003;74739;46.796;9.824;2024-03-22T04:33:48;9;9;
36513;PMS5003;74739;46.796;9.824;2024-03-22T04:36:15;8;7;
36513;PMS5003;74739;46.796;9.824;2024-03-22T04:38:42;9;9;
36513;PMS5003;74739;46.796;9.824;2024-03-22T04:41:10;8;8;
36513;PMS5003;74739;46.796;9.824;2024-03-22T04:43:37;9;8;
36513;PMS5003;74739;46.796;9.824;2024-03-22T04:46:05;8;7;
36513;PMS5003;74739;46.796;9.824;2024-03-22T04:48:32;7;7;
36513;PMS5003;74739;46.796;9.824;2024-03-22T04:50:59;9;8;
36513;PMS5003;74739;46.796;9.824;2024-03-22T04:53:26;9;9;
36513;PMS5003;74739;46.796;9.824;2024-03-22T04:55:54;7;7;
36513;PMS5003;74739;46.796;9.824;2024-03-22T04:58:21;12;9;
36513;PMS5003;74739;46.796;9.824;2024-03-22T05:00:49;11;9;
36513;PMS5003;74739;46.796;9.824;2024-03-22T05:03:22;8;8;
36513;PMS5003;74739;46.796;9.824;2024-03-22T05:05:49;7;7;
36513;PMS5003;74739;46.796;9.824;2024-03-22T05:08:17;8;7;
36513;PMS5003;74739;46.796;9.824;2024-03-22T05:10:44;10;10;
36513;PMS5003;74739;46.796;9.824;2024-03-22T05:13:10;10;9;
36513;PMS5003;74739;46.796;9.824;2024-03-22T05:15:37;15;11;
36513;PMS5003;74739;46.796;9.824;2024-03-22T05:18:04;13;13;
36513;PMS5003;74739;46.796;9.824;2024-03-22T05:20:32;10;9;
36513;PMS5003;74739;46.796;9.824;2024-03-22T05:23:00;12;10;
36513;PMS5003;74739;46.796;9.824;2024-03-22T05:25:27;9;9;
36513;PMS5003;74739;46.796;9.824;2024-03-22T05:27:54;10;10;
36513;PMS5003;74739;46.796;9.824;2024-03-22T05:30:20;9;9;
36513;PMS5003;74739;46.796;9.824;2024-03-22T05:32:47;10;10;
36513;PMS5003;74739;46.796;9.824;2024-03-22T05:35:15;11;11;
36513;PMS5003;74739;46.796;9.824;2024-03-22T05:37:42;11;10;
36513;PMS5003;74739;46.796;9.824;2024-03-22T05:40:10;8;8;
36513;PMS5003;74739;46.796;9.824;2024-03-22T05:42:38;12;10;
36513;PMS5003;74739;46.796;9.824;2024-03-22T05:45:05;13;13;
36513;PMS5003;74739;46.796;9.824;2024-03-22T05:47:33;15;14;
36513;PMS5003;74739;46.796;9.824;2024-03-22T05:50:00;10;10;
36513;PMS5003;74739;46.796;9.824;2024-03-22T05:52:27;10;10;
36513;PMS5003;74739;46.796;9.824;2024-03-22T05:54:53;9;9;
36513;PMS5003;74739;46.796;9.824;2024-03-22T05:57:20;11;11;
36513;PMS5003;74739;46.796;9.824;2024-03-22T05:59:47;14;14;
36513;PMS5003;74739;46.796;9.824;2024-03-22T06:02:14;10;9;
36513;PMS5003;74739;46.796;9.824;2024-03-22T06:04:41;13;13;
36513;PMS5003;74739;46.796;9.824;2024-03-22T06:07:09;14;14;
36513;PMS5003;74739;46.796;9.824;2024-03-22T06:09:36;10;10;
36513;PMS5003;74739;46.796;9.824;2024-03-22T06:12:04;13;13;
36513;PMS5003;74739;46.796;9.824;2024-03-22T06:14:32;9;9;
36513;PMS5003;74739;46.796;9.824;2024-03-22T06:16:59;13;12;
36513;PMS5003;74739;46.796;9.824;2024-03-22T06:19:26;11;10;
36513;PMS5003;74739;46.796;9.824;2024-03-22T06:21:53;7;7;
36513;PMS5003;74739;46.796;9.824;2024-03-22T06:24:21;9;8;
36513;PMS5003;74739;46.796;9.824;2024-03-22T06:26:47;9;8;
36513;PMS5003;74739;46.796;9.824;2024-03-22T06:29:14;10;9;
36513;PMS5003;74739;46.796;9.824;2024-03-22T06:31:41;11;11;
36513;PMS5003;74739;46.796;9.824;2024-03-22T06:34:09;11;11;
36513;PMS5003;74739;46.796;9.824;2024-03-22T06:36:36;14;12;
36513;PMS5003;74739;46.796;9.824;2024-03-22T06:39:04;9;9;
36513;PMS5003;74739;46.796;9.824;2024-03-22T06:41:31;13;11;
36513;PMS5003;74739;46.796;9.824;2024-03-22T06:43:58;11;10;
36513;PMS5003;74739;46.796;9.824;2024-03-22T06:46:24;12;12;
36513;PMS5003;74739;46.796;9.824;2024-03-22T06:48:51;14;13;
36513;PMS5003;74739;46.796;9.824;2024-03-22T06:51:19;16;15;
36513;PMS5003;74739;46.796;9.824;2024-03-22T06:53:47;20;17;
36513;PMS5003;74739;46.796;9.824;2024-03-22T06:56:14;17;16;
36513;PMS5003;74739;46.796;9.824;2024-03-22T06:58:41;20;20;
36513;PMS5003;74739;46.796;9.824;2024-03-22T07:01:11;22;22;
36513;PMS5003;74739;46.796;9.824;2024-03-22T07:03:39;13;12;
36513;PMS5003;74739;46.796;9.824;2024-03-22T07:06:06;17;16;
36513;PMS5003;74739;46.796;9.824;2024-03-22T07:08:33;17;17;
36513;PMS5003;74739;46.796;9.824;2024-03-22T07:11:00;19;19;
36513;PMS5003;74739;46.796;9.824;2024-03-22T07:13:31;17;16;
36513;PMS5003;74739;46.796;9.824;2024-03-22T07:15:58;20;17;
36513;PMS5003;74739;46.796;9.824;2024-03-22T07:18:25;17;15;
36513;PMS5003;74739;46.796;9.824;2024-03-22T07:20:52;16;15;
36513;PMS5003;74739;46.796;9.824;2024-03-22T07:23:24;15;15;
36513;PMS5003;74739;46.796;9.824;2024-03-22T07:25:51;15;12;
36513;PMS5003;74739;46.796;9.824;2024-03-22T07:28:18;18;15;
36513;PMS5003;74739;46.796;9.824;2024-03-22T07:30:45;17;17;
36513;PMS5003;74739;46.796;9.824;2024-03-22T07:33:12;14;12;
36513;PMS5003;74739;46.796;9.824;2024-03-22T07:35:39;15;14;
36513;PMS5003;74739;46.796;9.824;2024-03-22T07:38:06;9;9;
36513;PMS5003;74739;46.796;9.824;2024-03-22T07:40:33;11;10;
36513;PMS5003;74739;46.796;9.824;2024-03-22T07:43:01;9;9;
36513;PMS5003;74739;46.796;9.824;2024-03-22T07:45:28;11;11;
36513;PMS5003;74739;46.796;9.824;2024-03-22T07:47:55;9;8;
36513;PMS5003;74739;46.796;9.824;2024-03-22T07:50:22;8;6;
36513;PMS5003;74739;46.796;9.824;2024-03-22T07:52:49;8;6;
36513;PMS5003;74739;46.796;9.824;2024-03-22T07:55:16;6;6;
36513;PMS5003;74739;46.796;9.824;2024-03-22T07:57:43;9;9;
36513;PMS5003;74739;46.796;9.824;2024-03-22T08:00:10;11;11;
36513;PMS5003;74739;46.796;9.824;2024-03-22T08:02:37;7;7;
36513;PMS5003;74739;46.796;9.824;2024-03-22T08:05:04;9;9;
36513;PMS5003;74739;46.796;9.824;2024-03-22T08:07:32;6;6;
36513;PMS5003;74739;46.796;9.824;2024-03-22T08:09:59;7;6;
36513;PMS5003;74739;46.796;9.824;2024-03-22T08:12:26;6;5;
36513;PMS5003;74739;46.796;9.824;2024-03-22T08:14:53;5;5;
36513;PMS5003;74739;46.796;9.824;2024-03-22T08:17:20;4;4;
36513;PMS5003;74739;46.796;9.824;2024-03-22T08:19:48;4;3;
36513;PMS5003;74739;46.796;9.824;2024-03-22T08:22:15;5;5;
36513;PMS5003;74739;46.796;9.824;2024-03-22T08:24:43;5;3;
36513;PMS5003;74739;46.796;9.824;2024-03-22T08:27:10;5;5;
36513;PMS5003;74739;46.796;9.824;2024-03-22T08:29:39;6;5;
36513;PMS5003;74739;46.796;9.824;2024-03-22T08:32:07;5;5;
36513;PMS5003;74739;46.796;9.824;2024-03-22T08:34:34;7;6;
36513;PMS5003;74739;46.796;9.824;2024-03-22T08:37:03;4;4;
36513;PMS5003;74739;46.796;9.824;2024-03-22T08:39:30;6;6;
36513;PMS5003;74739;46.796;9.824;2024-03-22T08:41:59;4;4;
36513;PMS5003;74739;46.796;9.824;2024-03-22T08:44:26;5;4;
36513;PMS5003;74739;46.796;9.824;2024-03-22T08:46:53;6;5;
36513;PMS5003;74739;46.796;9.824;2024-03-22T08:49:20;9;5;
36513;PMS5003;74739;46.796;9.824;2024-03-22T08:51:46;5;4;
36513;PMS5003;74739;46.796;9.824;2024-03-22T08:54:14;4;4;
36513;PMS5003;74739;46.796;9.824;2024-03-22T08:56:41;4;2;
36513;PMS5003;74739;46.796;9.824;2024-03-22T08:59:09;3;2;
36513;PMS5003;74739;46.796;9.824;2024-03-22T09:01:37;2;2;
36513;PMS5003;74739;46.796;9.824;2024-03-22T09:04:04;2;2;
36513;PMS5003;74739;46.796;9.824;2024-03-22T09:06:31;8;6;
36513;PMS5003;74739;46.796;9.824;2024-03-22T09:08:57;5;5;
36513;PMS5003;74739;46.796;9.824;2024-03-22T09:11:24;2;2;
36513;PMS5003;74739;46.796;9.824;2024-03-22T09:13:52;10;9;
36513;PMS5003;74739;46.796;9.824;2024-03-22T09:16:19;6;5;
36513;PMS5003;74739;46.796;9.824;2024-03-22T09:18:46;6;4;
36513;PMS5003;74739;46.796;9.824;2024-03-22T09:21:14;3;3;
36513;PMS5003;74739;46.796;9.824;2024-03-22T09:23:42;2;2;
36513;PMS5003;74739;46.796;9.824;2024-03-22T09:26:10;3;3;
36513;PMS5003;74739;46.796;9.824;2024-03-22T09:28:37;5;3;
36513;PMS5003;74739;46.796;9.824;2024-03-22T09:31:04;3;2;
36513;PMS5003;74739;46.796;9.824;2024-03-22T09:33:32;2;2;
36513;PMS5003;74739;46.796;9.824;2024-03-22T09:35:59;2;2;
36513;PMS5003;74739;46.796;9.824;2024-03-22T09:38:26;2;2;
36513;PMS5003;74739;46.796;9.824;2024-03-22T09:40:53;1;1;
36513;PMS5003;74739;46.796;9.824;2024-03-22T09:43:21;1;1;
36513;PMS5003;74739;46.796;9.824;2024-03-22T09:45:49;1;1;
36513;PMS5003;74739;46.796;9.824;2024-03-22T09:48:16;2;1;
36513;PMS5003;74739;46.796;9.824;2024-03-22T09:50:44;1;1;
36513;PMS5003;74739;46.796;9.824;2024-03-22T09:53:13;0;0;
36513;PMS5003;74739;46.796;9.824;2024-03-22T09:55:44;1;1;
36513;PMS5003;74739;46.796;9.824;2024-03-22T09:58:13;1;1;
36513;PMS5003;74739;46.796;9.824;2024-03-22T10:00:41;1;1;
36513;PMS5003;74739;46.796;9.824;2024-03-22T10:03:08;1;1;
36513;PMS5003;74739;46.796;9.824;2024-03-22T10:05:38;0;0;
36513;PMS5003;74739;46.796;9.824;2024-03-22T10:08:09;1;1;
36513;PMS5003;74739;46.796;9.824;2024-03-22T10:10:39;2;1;
36513;PMS5003;74739;46.796;9.824;2024-03-22T10:13:10;2;1;
36513;PMS5003;74739;46.796;9.824;2024-03-22T10:15:39;0;0;
36513;PMS5003;74739;46.796;9.824;2024-03-22T10:18:06;0;0;
36513;PMS5003;74739;46.796;9.824;2024-03-22T10:20:39;0;0;
36513;PMS5003;74739;46.796;9.824;2024-03-22T10:23:07;1;1;
36513;PMS5003;74739;46.796;9.824;2024-03-22T10:25:41;0;0;
36513;PMS5003;74739;46.796;9.824;2024-03-22T10:28:09;1;1;
36513;PMS5003;74739;46.796;9.824;2024-03-22T10:30:36;1;1;
36513;PMS5003;74739;46.796;9.824;2024-03-22T10:30:46;1;1;
36513;PMS5003;74739;46.796;9.824;2024-03-22T10:33:16;0;0;
36513;PMS5003;74739;46.796;9.824;2024-03-22T10:35:47;2;2;
36513;PMS5003;74739;46.796;9.824;2024-03-22T10:38:18;0;0;
36513;PMS5003;74739;46.796;9.824;2024-03-22T10:40:47;2;2;
36513;PMS5003;74739;46.796;9.824;2024-03-22T10:43:15;1;1;
36513;PMS5003;74739;46.796;9.824;2024-03-22T10:45:42;0;0;
36513;PMS5003;74739;46.796;9.824;2024-03-22T10:48:14;0;0;
36513;PMS5003;74739;46.796;9.824;2024-03-22T10:50:46;1;1;
36513;PMS5003;74739;46.796;9.824;2024-03-22T10:53:14;2;1;
36513;PMS5003;74739;46.796;9.824;2024-03-22T10:55:46;1;1;
36513;PMS5003;74739;46.796;9.824;2024-03-22T10:58:16;0;0;
36513;PMS5003;74739;46.796;9.824;2024-03-22T11:00:44;0;0;
36513;PMS5003;74739;46.796;9.824;2024-03-22T11:03:12;1;1;
36513;PMS5003;74739;46.796;9.824;2024-03-22T11:05:45;0;0;
36513;PMS5003;74739;46.796;9.824;2024-03-22T11:08:12;0;0;
36513;PMS5003;74739;46.796;9.824;2024-03-22T11:10:39;2;1;
36513;PMS5003;74739;46.796;9.824;2024-03-22T11:13:07;0;0;
36513;PMS5003;74739;46.796;9.824;2024-03-22T11:15:36;0;0;
36513;PMS5003;74739;46.796;9.824;2024-03-22T11:18:03;0;0;
36513;PMS5003;74739;46.796;9.824;2024-03-22T11:20:30;1;1;
36513;PMS5003;74739;46.796;9.824;2024-03-22T11:22:57;1;1;
36513;PMS5003;74739;46.796;9.824;2024-03-22T11:25:25;0;0;
36513;PMS5003;74739;46.796;9.824;2024-03-22T11:27:52;1;1;
36513;PMS5003;74739;46.796;9.824;2024-03-22T11:30:19;1;1;
36513;PMS5003;74739;46.796;9.824;2024-03-22T11:32:46;0;0;
36513;PMS5003;74739;46.796;9.824;2024-03-22T11:35:14;0;0;
36513;PMS5003;74739;46.796;9.824;2024-03-22T11:37:41;0;0;
36513;PMS5003;74739;46.796;9.824;2024-03-22T11:40:09;0;0;
36513;PMS5003;74739;46.796;9.824;2024-03-22T11:42:36;0;0;
36513;PMS5003;74739;46.796;9.824;2024-03-22T11:45:04;0;0;
36513;PMS5003;74739;46.796;9.824;2024-03-22T11:47:34;0;0;
36513;PMS5003;74739;46.796;9.824;2024-03-22T11:50:02;0;0;
36513;PMS5003;74739;46.796;9.824;2024-03-22T11:52:30;0;0;
36513;PMS5003;74739;46.796;9.824;2024-03-22T11:54:57;0;0;
36513;PMS5003;74739;46.796;9.824;2024-03-22T11:57:25;1;1;
36513;PMS5003;74739;46.796;9.824;2024-03-22T11:59:52;0;0;
36513;PMS5003;74739;46.796;9.824;2024-03-22T12:02:25;0;0;
36513;PMS5003;74739;46.796;9.824;2024-03-22T12:04:53;0;0;
36513;PMS5003;74739;46.796;9.824;2024-03-22T12:07:20;0;0;
36513;PMS5003;74739;46.796;9.824;2024-03-22T12:09:47;0;0;
36513;PMS5003;74739;46.796;9.824;2024-03-22T12:12:15;0;0;
36513;PMS5003;74739;46.796;9.824;2024-03-22T12:14:42;0;0;
36513;PMS5003;74739;46.796;9.824;2024-03-22T12:17:09;0;0;
36513;PMS5003;74739;46.796;9.824;2024-03-22T12:19:37;1;1;
36513;PMS5003;74739;46.796;9.824;2024-03-22T12:22:04;0;0;
36513;PMS5003;74739;46.796;9.824;2024-03-22T12:24:31;0;0;
36513;PMS5003;74739;46.796;9.824;2024-03-22T12:26:58;0;0;
36513;PMS5003;74739;46.796;9.824;2024-03-22T12:29:26;0;0;
36513;PMS5003;74739;46.796;9.824;2024-03-22T12:31:53;1;0;
36513;PMS5003;74739;46.796;9.824;2024-03-22T12:34:20;0;0;
36513;PMS5003;74739;46.796;9.824;2024-03-22T12:36:47;0;0;
36513;PMS5003;74739;46.796;9.824;2024-03-22T12:39:15;0;0;
36513;PMS5003;74739;46.796;9.824;2024-03-22T12:41:42;0;0;
36513;PMS5003;74739;46.796;9.824;2024-03-22T12:44:09;0;0;
36513;PMS5003;74739;46.796;9.824;2024-03-22T12:46:37;0;0;
36513;PMS5003;74739;46.796;9.824;2024-03-22T12:49:04;0;0;
36513;PMS5003;74739;46.796;9.824;2024-03-22T12:51:31;0;0;
36513;PMS5003;74739;46.796;9.824;2024-03-22T12:53:58;0;0;
36513;PMS5003;74739;46.796;9.824;2024-03-22T12:56:26;0;0;
36513;PMS5003;74739;46.796;9.824;2024-03-22T12:58:53;0;0;
36513;PMS5003;74739;46.796;9.824;2024-03-22T13:01:20;0;0;
36513;PMS5003;74739;46.796;9.824;2024-03-22T13:03:48;26;26;
36513;PMS5003;74739;46.796;9.824;2024-03-22T13:06:15;12;12;
36513;PMS5003;74739;46.796;9.824;2024-03-22T13:08:42;7;7;
36513;PMS5003;74739;46.796;9.824;2024-03-22T13:11:09;3;3;
36513;PMS5003;74739;46.796;9.824;2024-03-22T13:13:37;0;0;
36513;PMS5003;74739;46.796;9.824;2024-03-22T13:16:04;0;0;
36513;PMS5003;74739;46.796;9.824;2024-03-22T13:18:31;0;0;
36513;PMS5003;74739;46.796;9.824;2024-03-22T13:20:58;0;0;
36513;PMS5003;74739;46.796;9.824;2024-03-22T13:23:26;0;0;
36513;PMS5003;74739;46.796;9.824;2024-03-22T13:25:54;0;0;
36513;PMS5003;74739;46.796;9.824;2024-03-22T13:28:21;0;0;
36513;PMS5003;74739;46.796;9.824;2024-03-22T13:30:48;0;0;
36513;PMS5003;74739;46.796;9.824;2024-03-22T13:33:15;0;0;
36513;PMS5003;74739;46.796;9.824;2024-03-22T13:35:44;0;0;
36513;PMS5003;74739;46.796;9.824;2024-03-22T13:38:11;0;0;
36513;PMS5003;74739;46.796;9.824;2024-03-22T13:40:39;0;0;
36513;PMS5003;74739;46.796;9.824;2024-03-22T13:43:06;0;0;
36513;PMS5003;74739;46.796;9.824;2024-03-22T13:45:38;0;0;
36513;PMS5003;74739;46.796;9.824;2024-03-22T13:48:10;0;0;
36513;PMS5003;74739;46.796;9.824;2024-03-22T13:50:37;0;0;
36513;PMS5003;74739;46.796;9.824;2024-03-22T13:53:04;0;0;
36513;PMS5003;74739;46.796;9.824;2024-03-22T13:55:31;1;1;
36513;PMS5003;74739;46.796;9.824;2024-03-22T13:57:59;0;0;
36513;PMS5003;74739;46.796;9.824;2024-03-22T14:00:26;1;1;
36513;PMS5003;74739;46.796;9.824;2024-03-22T14:02:53;0;0;
36513;PMS5003;74739;46.796;9.824;2024-03-22T14:05:20;0;0;
36513;PMS5003;74739;46.796;9.824;2024-03-22T14:07:47;0;0;
36513;PMS5003;74739;46.796;9.824;2024-03-22T14:10:15;0;0;
36513;PMS5003;74739;46.796;9.824;2024-03-22T14:12:42;0;0;
36513;PMS5003;74739;46.796;9.824;2024-03-22T14:15:09;0;0;
36513;PMS5003;74739;46.796;9.824;2024-03-22T14:17:37;0;0;
36513;PMS5003;74739;46.796;9.824;2024-03-22T14:20:04;0;0;
36513;PMS5003;74739;46.796;9.824;2024-03-22T14:22:32;0;0;
36513;PMS5003;74739;46.796;9.824;2024-03-22T14:24:59;0;0;
36513;PMS5003;74739;46.796;9.824;2024-03-22T14:27:26;0;0;
36513;PMS5003;74739;46.796;9.824;2024-03-22T14:29:53;0;0;
36513;PMS5003;74739;46.796;9.824;2024-03-22T14:32:21;1;1;
36513;PMS5003;74739;46.796;9.824;2024-03-22T14:34:48;0;0;
36513;PMS5003;74739;46.796;9.824;2024-03-22T14:37:15;0;0;
36513;PMS5003;74739;46.796;9.824;2024-03-22T14:39:43;0;0;
36513;PMS5003;74739;46.796;9.824;2024-03-22T14:42:10;0;0;
36513;PMS5003;74739;46.796;9.824;2024-03-22T14:44:38;0;0;
36513;PMS5003;74739;46.796;9.824;2024-03-22T14:47:05;0;0;
36513;PMS5003;74739;46.796;9.824;2024-03-22T14:49:33;0;0;
36513;PMS5003;74739;46.796;9.824;2024-03-22T14:52:00;1;1;
36513;PMS5003;74739;46.796;9.824;2024-03-22T14:54:27;0;0;
36513;PMS5003;74739;46.796;9.824;2024-03-22T14:56:55;1;1;
36513;PMS5003;74739;46.796;9.824;2024-03-22T14:59:22;0;0;
36513;PMS5003;74739;46.796;9.824;2024-03-22T15:01:49;0;0;
36513;PMS5003;74739;46.796;9.824;2024-03-22T15:04:16;1;0;
36513;PMS5003;74739;46.796;9.824;2024-03-22T15:06:44;1;1;
36513;PMS5003;74739;46.796;9.824;2024-03-22T15:09:11;0;0;
36513;PMS5003;74739;46.796;9.824;2024-03-22T15:11:38;0;0;
36513;PMS5003;74739;46.796;9.824;2024-03-22T15:14:06;0;0;
36513;PMS5003;74739;46.796;9.824;2024-03-22T15:16:33;0;0;
36513;PMS5003;74739;46.796;9.824;2024-03-22T15:19:00;0;0;
36513;PMS5003;74739;46.796;9.824;2024-03-22T15:21:28;0;0;
36513;PMS5003;74739;46.796;9.824;2024-03-22T15:23:55;0;0;
36513;PMS5003;74739;46.796;9.824;2024-03-22T15:26:22;0;0;
36513;PMS5003;74739;46.796;9.824;2024-03-22T15:28:50;0;0;
36513;PMS5003;74739;46.796;9.824;2024-03-22T15:31:17;0;0;
36513;PMS5003;74739;46.796;9.824;2024-03-22T15:33:45;0;0;
36513;PMS5003;74739;46.796;9.824;2024-03-22T15:36:12;0;0;
36513;PMS5003;74739;46.796;9.824;2024-03-22T15:38:40;0;0;
36513;PMS5003;74739;46.796;9.824;2024-03-22T15:41:07;2;1;
36513;PMS5003;74739;46.796;9.824;2024-03-22T15:43:35;3;3;
36513;PMS5003;74739;46.796;9.824;2024-03-22T15:46:02;1;1;
36513;PMS5003;74739;46.796;9.824;2024-03-22T15:48:29;0;0;
36513;PMS5003;74739;46.796;9.824;2024-03-22T15:50:57;1;0;
36513;PMS5003;74739;46.796;9.824;2024-03-22T15:53:24;0;0;
36513;PMS5003;74739;46.796;9.824;2024-03-22T15:55:51;0;0;
36513;PMS5003;74739;46.796;9.824;2024-03-22T15:58:19;0;0;
36513;PMS5003;74739;46.796;9.824;2024-03-22T16:00:46;1;0;
36513;PMS5003;74739;46.796;9.824;2024-03-22T16:03:14;1;0;
36513;PMS5003;74739;46.796;9.824;2024-03-22T16:05:48;1;0;
36513;PMS5003;74739;46.796;9.824;2024-03-22T16:08:16;0;0;
36513;PMS5003;74739;46.796;9.824;2024-03-22T16:10:44;1;0;
36513;PMS5003;74739;46.796;9.824;2024-03-22T16:13:11;0;0;
36513;PMS5003;74739;46.796;9.824;2024-03-22T16:15:39;0;0;
36513;PMS5003;74739;46.796;9.824;2024-03-22T16:18:13;0;0;
36513;PMS5003;74739;46.796;9.824;2024-03-22T16:20:40;0;0;
36513;PMS5003;74739;46.796;9.824;2024-03-22T16:23:08;0;0;
36513;PMS5003;74739;46.796;9.824;2024-03-22T16:25:35;3;3;
36513;PMS5003;74739;46.796;9.824;2024-03-22T16:28:03;0;0;
36513;PMS5003;74739;46.796;9.824;2024-03-22T16:30:31;2;2;
36513;PMS5003;74739;46.796;9.824;2024-03-22T16:32:58;0;0;
36513;PMS5003;74739;46.796;9.824;2024-03-22T16:35:25;0;0;
36513;PMS5003;74739;46.796;9.824;2024-03-22T16:37:52;0;0;
36513;PMS5003;74739;46.796;9.824;2024-03-22T16:40:20;1;1;
36513;PMS5003;74739;46.796;9.824;2024-03-22T16:42:47;0;0;
36513;PMS5003;74739;46.796;9.824;2024-03-22T16:45:15;2;0;
36513;PMS5003;74739;46.796;9.824;2024-03-22T16:47:43;0;0;